Helas — C4AZ2 — position and weather

sailwx.info

Track history (hours):
 
Tides and Currents Weather Stations Pressure Air Temp Water Temp Dewpoint Dewpoint Depression Visibility Wind Speed Wind Dir Waves Ship Positions

Helas

Last reported at 2017-Jan-14 14:21 UTC. Time now 2017-Jan-18 12:10 UTC.
Position N 44°39' W 001°46'.

Length 89 m; draft 4.8 m.

Type: Cargo ship. MMSI: 210031000.

Date/timePositionNaut miles runAvg speedWind from/ knotsBaromVisibWave heightAir tempDewpointWater temp
2017-Jan-14 14:21N 44°39' W 001°46'6 7.3
2017-Jan-14 13:33N 44°38' W 001°38'9 9.4
2017-Jan-14 12:33N 44°47' W 001°42'137 9.0
2017-Jan-13 21:24N 46°50' W 003°08'3 4.0
2017-Jan-13 20:33N 46°53' W 003°05'8 8.1
2017-Jan-13 19:33N 46°54' W 002°54'8 8.1
2017-Jan-13 18:33N 46°55' W 002°42'30 1.3
2017-Jan-12 19:18N 47°17' W 002°12'0 0.0
2017-Jan-12 18:33N 47°17' W 002°12'0 0.0
2017-Jan-12 17:30N 47°17' W 002°12'0 0.0
2017-Jan-12 16:33N 47°17' W 002°12'0 0.0
2017-Jan-12 12:06N 47°17' W 002°12'0 0.0
2017-Jan-12 07:27N 47°17' W 002°12'0 0.0
2017-Jan-12 06:27N 47°17' W 002°12'0 0.0
2017-Jan-12 05:30N 47°17' W 002°12'0 0.0
2017-Jan-12 04:30N 47°17' W 002°12'0 0.0
2017-Jan-12 03:23N 47°17' W 002°12'0 0.0
2017-Jan-12 02:26N 47°17' W 002°12'0 0.0
2017-Jan-12 01:29N 47°17' W 002°12'0 0.0
2017-Jan-12 00:32N 47°17' W 002°12'0 0.0
2017-Jan-11 23:26N 47°17' W 002°12'0 0.0
2017-Jan-11 22:29N 47°17' W 002°12'0 0.0
2017-Jan-11 21:29N 47°17' W 002°12'0 0.0
2017-Jan-11 20:29N 47°17' W 002°12'0 0.0
2017-Jan-11 19:29N 47°17' W 002°12'0 0.0
2017-Jan-11 18:32N 47°17' W 002°12'0 0.0
2017-Jan-11 17:29N 47°17' W 002°12'0 0.0
2017-Jan-11 16:26N 47°17' W 002°12'0 0.0
2017-Jan-11 15:26N 47°17' W 002°12'0 0.0
2017-Jan-11 14:32N 47°17' W 002°12'0 0.0
2017-Jan-11 12:29N 47°17' W 002°12'0 0.0
2017-Jan-11 11:32N 47°17' W 002°12'0 0.0
2017-Jan-11 09:17N 47°17' W 002°12'0 0.0
2017-Jan-11 05:23N 47°17' W 002°12'0 0.0
2017-Jan-10 20:29N 47°17' W 002°12'0 0.0
2017-Jan-10 19:13N 47°17' W 002°12'0 0.0
2017-Jan-10 18:22N 47°17' W 002°12'0 0.0
2017-Jan-10 17:13N 47°17' W 002°12'0 0.0
2017-Jan-10 16:31N 47°17' W 002°12'0 0.0
2017-Jan-10 12:25N 47°17' W 002°12'0 0.0
2017-Jan-10 11:25N 47°17' W 002°12'0 0.0
2017-Jan-09 20:28N 47°17' W 002°12'0 0.0
2017-Jan-09 19:31N 47°17' W 002°12'0 0.0
2017-Jan-09 18:28N 47°17' W 002°12'0 0.0
2017-Jan-09 17:31N 47°17' W 002°12'0 0.1
2017-Jan-09 14:31N 47°17' W 002°12'3 2.6
2017-Jan-09 13:33N 47°15' W 002°14'9 9.1
2017-Jan-09 12:32N 47°07' W 002°22'11 5.4
2017-Jan-09 10:33N 47°01' W 002°35'4 3.7
2017-Jan-09 09:30N 47°01' W 002°41'4 3.8
2017-Jan-09 08:33N 47°02' W 002°46'9 9.2
2017-Jan-09 07:33N 47°07' W 002°58'9 9.2
2017-Jan-09 06:33N 47°11' W 003°09'9 9.3
2017-Jan-09 05:33N 47°16' W 003°21'7 7.2
2017-Jan-09 04:33N 47°19' W 003°31'6 6.3
2017-Jan-09 03:33N 47°22' W 003°39'6 6.3
2017-Jan-09 02:33N 47°25' W 003°47'6 6.3
2017-Jan-09 01:33N 47°28' W 003°55'7 6.5
2017-Jan-09 00:27N 47°32' W 004°04'31 6.4
2017-Jan-08 19:33N 47°48' W 004°44'6 5.9
2017-Jan-08 18:34N 47°52' W 004°51'6 5.9
2017-Jan-08 17:33N 47°55' W 004°58'6 6.4
2017-Jan-08 16:33N 47°59' W 005°06'7 6.5
2017-Jan-08 15:33N 48°03' W 005°13'10 9.8
2017-Jan-08 14:33N 48°13' W 005°17'9 9.5
2017-Jan-08 13:33N 48°22' W 005°22'9 8.8
2017-Jan-08 12:33N 48°30' W 005°25'7 7.5
2017-Jan-08 11:33N 48°36' W 005°19'7 7.3
2017-Jan-08 10:33N 48°41' W 005°11'8 7.7
2017-Jan-08 09:33N 48°46' W 005°01'8 8.3
2017-Jan-08 08:33N 48°51' W 004°51'9 8.9
2017-Jan-08 07:33N 48°56' W 004°40'69 8.4
2017-Jan-07 23:20N 49°40' W 003°18'7 8.5
2017-Jan-07 22:33N 49°46' W 003°14'9 9.3
2017-Jan-07 21:33N 49°52' W 003°03'11 9.7
2017-Jan-07 20:27N 49°58' W 002°49'9 9.9
2017-Jan-07 19:30N 50°01' W 002°35'22 9.1
2017-Jan-07 17:05N 50°07' W 002°02'4 7.8
2017-Jan-07 16:33N 50°09' W 001°56'7 7.0
2017-Jan-07 15:33N 50°11' W 001°46'6 6.3
2017-Jan-07 14:33N 50°12' W 001°36'6 6.4
2017-Jan-07 13:33N 50°14' W 001°27'7 7.3
2017-Jan-07 12:33N 50°17' W 001°16'33 9.6
2017-Jan-07 09:05N 50°26' W 000°26'5 9.9
2017-Jan-07 08:33N 50°28' W 000°18'10 9.6
2017-Jan-07 07:31N 50°31' W 000°03'9 9.2
2017-Jan-07 06:33N 50°34' E 000°10'9 8.6
2017-Jan-07 05:32N 50°36' E 000°23'31 7.9
2017-Jan-07 01:33N 50°53' E 001°06'10 9.6
2017-Jan-07 00:33N 50°59' E 001°17'10 9.8
2017-Jan-06 23:33N 51°05' E 001°29'9 8.9
2017-Jan-06 22:33N 51°11' E 001°40'8 8.0
2017-Jan-06 21:33N 51°17' E 001°48'8 7.5
2017-Jan-06 20:33N 51°23' E 001°54'7 7.2
2017-Jan-06 19:33N 51°29' E 002°00'8 7.4
2017-Jan-06 18:32N 51°35' E 002°09'90 9.0
2017-Jan-06 08:33N 52°31' E 004°03'9 8.8
2017-Jan-06 07:33N 52°30' E 004°17'9 9.1
2017-Jan-06 06:33N 52°28' E 004°31'3 3.0
2017-Jan-06 05:32N 52°28' E 004°36'0 0.0
2017-Jan-06 04:32N 52°28' E 004°36'0 0.0
2017-Jan-06 03:32N 52°28' E 004°36'0 0.0
2017-Jan-06 02:29N 52°28' E 004°36'0 0.0
2017-Jan-06 01:32N 52°28' E 004°36'0 0.0
2017-Jan-06 00:32N 52°28' E 004°36'0 0.0
2017-Jan-05 23:32N 52°28' E 004°36'0 0.0
2017-Jan-05 22:32N 52°28' E 004°36'0 0.0
2017-Jan-05 21:32N 52°28' E 004°36'0 0.0
2017-Jan-05 20:32N 52°28' E 004°36'0 0.0
2017-Jan-05 19:32N 52°28' E 004°36'0 0.0
2017-Jan-05 18:32N 52°28' E 004°36'0 0.0
2017-Jan-05 17:32N 52°28' E 004°36'0 0.0
2017-Jan-05 16:32N 52°28' E 004°36'0 0.0
2017-Jan-05 15:32N 52°28' E 004°36'0 0.0
2017-Jan-05 14:32N 52°28' E 004°36'0 0.0
2017-Jan-05 13:29N 52°28' E 004°36'0 0.0
2017-Jan-05 12:32N 52°28' E 004°36'0 0.0
2017-Jan-05 11:32N 52°28' E 004°36'0 0.1
2017-Jan-05 10:31N 52°28' E 004°36'0 0.1
2017-Jan-05 09:31N 52°28' E 004°36'0 0.0
2017-Jan-05 08:31N 52°28' E 004°36'0 0.0
2017-Jan-05 07:31N 52°28' E 004°36'0 0.0
2017-Jan-05 06:31N 52°28' E 004°36'0 0.0
2017-Jan-05 05:31N 52°28' E 004°36'0 0.2
2017-Jan-05 04:31N 52°28' E 004°36'0 0.0
2017-Jan-05 03:28N 52°28' E 004°36'0 0.0
2017-Jan-05 02:31N 52°28' E 004°36'0 0.0
2017-Jan-05 01:31N 52°28' E 004°36'0 0.0
2017-Jan-05 00:31N 52°28' E 004°36'0 0.0
2017-Jan-04 23:31N 52°28' E 004°36'0 0.0
2017-Jan-04 22:31N 52°28' E 004°36'0 0.0
2017-Jan-04 21:31N 52°28' E 004°36'0 0.1
2017-Jan-04 20:25N 52°29' E 004°36'0 0.1
2017-Jan-04 19:28N 52°28' E 004°36'0 0.0
2017-Jan-04 18:31N 52°28' E 004°36'0 0.0
2017-Jan-04 17:31N 52°28' E 004°36'0 0.0
2017-Jan-04 16:31N 52°28' E 004°36'0 0.0
2017-Jan-04 15:31N 52°28' E 004°36'0 0.0
2017-Jan-04 14:31N 52°28' E 004°36'  
Track history (hours):
 
Tides and Currents Weather Stations Pressure Air Temp Water Temp Dewpoint Dewpoint Depression Visibility Wind Speed Wind Dir Waves Ship Positions

Helas

Last reported at 2017-Jan-14 14:21 UTC. Time now 2017-Jan-18 12:10 UTC.
Position N 44°39' W 001°46'.

Length 89 m; draft 4.8 m.

Type: Cargo ship. MMSI: 210031000.

Date/timePositionNaut miles runAvg speedWind from/ knotsBaromVisibWave heightAir tempDewpointWater temp
2017-Jan-14 14:21N 44°39' W 001°46'6 7.3
2017-Jan-14 13:33N 44°38' W 001°38'9 9.4
2017-Jan-14 12:33N 44°47' W 001°42'137 9.0
2017-Jan-13 21:24N 46°50' W 003°08'3 4.0
2017-Jan-13 20:33N 46°53' W 003°05'8 8.1
2017-Jan-13 19:33N 46°54' W 002°54'8 8.1
2017-Jan-13 18:33N 46°55' W 002°42'30 1.3
2017-Jan-12 19:18N 47°17' W 002°12'0 0.0
2017-Jan-12 18:33N 47°17' W 002°12'0 0.0
2017-Jan-12 17:30N 47°17' W 002°12'0 0.0
2017-Jan-12 16:33N 47°17' W 002°12'0 0.0
2017-Jan-12 12:06N 47°17' W 002°12'0 0.0
2017-Jan-12 07:27N 47°17' W 002°12'0 0.0
2017-Jan-12 06:27N 47°17' W 002°12'0 0.0
2017-Jan-12 05:30N 47°17' W 002°12'0 0.0
2017-Jan-12 04:30N 47°17' W 002°12'0 0.0
2017-Jan-12 03:23N 47°17' W 002°12'0 0.0
2017-Jan-12 02:26N 47°17' W 002°12'0 0.0
2017-Jan-12 01:29N 47°17' W 002°12'0 0.0
2017-Jan-12 00:32N 47°17' W 002°12'0 0.0
2017-Jan-11 23:26N 47°17' W 002°12'0 0.0
2017-Jan-11 22:29N 47°17' W 002°12'0 0.0
2017-Jan-11 21:29N 47°17' W 002°12'0 0.0
2017-Jan-11 20:29N 47°17' W 002°12'0 0.0
2017-Jan-11 19:29N 47°17' W 002°12'0 0.0
2017-Jan-11 18:32N 47°17' W 002°12'0 0.0
2017-Jan-11 17:29N 47°17' W 002°12'0 0.0
2017-Jan-11 16:26N 47°17' W 002°12'0 0.0
2017-Jan-11 15:26N 47°17' W 002°12'0 0.0
2017-Jan-11 14:32N 47°17' W 002°12'0 0.0
2017-Jan-11 12:29N 47°17' W 002°12'0 0.0
2017-Jan-11 11:32N 47°17' W 002°12'0 0.0
2017-Jan-11 09:17N 47°17' W 002°12'0 0.0
2017-Jan-11 05:23N 47°17' W 002°12'0 0.0
2017-Jan-10 20:29N 47°17' W 002°12'0 0.0
2017-Jan-10 19:13N 47°17' W 002°12'0 0.0
2017-Jan-10 18:22N 47°17' W 002°12'0 0.0
2017-Jan-10 17:13N 47°17' W 002°12'0 0.0
2017-Jan-10 16:31N 47°17' W 002°12'0 0.0
2017-Jan-10 12:25N 47°17' W 002°12'0 0.0
2017-Jan-10 11:25N 47°17' W 002°12'0 0.0
2017-Jan-09 20:28N 47°17' W 002°12'0 0.0
2017-Jan-09 19:31N 47°17' W 002°12'0 0.0
2017-Jan-09 18:28N 47°17' W 002°12'0 0.0
2017-Jan-09 17:31N 47°17' W 002°12'0 0.1
2017-Jan-09 14:31N 47°17' W 002°12'3 2.6
2017-Jan-09 13:33N 47°15' W 002°14'9 9.1
2017-Jan-09 12:32N 47°07' W 002°22'11 5.4
2017-Jan-09 10:33N 47°01' W 002°35'4 3.7
2017-Jan-09 09:30N 47°01' W 002°41'4 3.8
2017-Jan-09 08:33N 47°02' W 002°46'9 9.2
2017-Jan-09 07:33N 47°07' W 002°58'9 9.2
2017-Jan-09 06:33N 47°11' W 003°09'9 9.3
2017-Jan-09 05:33N 47°16' W 003°21'7 7.2
2017-Jan-09 04:33N 47°19' W 003°31'6 6.3
2017-Jan-09 03:33N 47°22' W 003°39'6 6.3
2017-Jan-09 02:33N 47°25' W 003°47'6 6.3
2017-Jan-09 01:33N 47°28' W 003°55'7 6.5
2017-Jan-09 00:27N 47°32' W 004°04'31 6.4
2017-Jan-08 19:33N 47°48' W 004°44'6 5.9
2017-Jan-08 18:34N 47°52' W 004°51'6 5.9
2017-Jan-08 17:33N 47°55' W 004°58'6 6.4
2017-Jan-08 16:33N 47°59' W 005°06'7 6.5
2017-Jan-08 15:33N 48°03' W 005°13'10 9.8
2017-Jan-08 14:33N 48°13' W 005°17'9 9.5
2017-Jan-08 13:33N 48°22' W 005°22'9 8.8
2017-Jan-08 12:33N 48°30' W 005°25'7 7.5
2017-Jan-08 11:33N 48°36' W 005°19'7 7.3
2017-Jan-08 10:33N 48°41' W 005°11'8 7.7
2017-Jan-08 09:33N 48°46' W 005°01'8 8.3
2017-Jan-08 08:33N 48°51' W 004°51'9 8.9
2017-Jan-08 07:33N 48°56' W 004°40'69 8.4
2017-Jan-07 23:20N 49°40' W 003°18'7 8.5
2017-Jan-07 22:33N 49°46' W 003°14'9 9.3
2017-Jan-07 21:33N 49°52' W 003°03'11 9.7
2017-Jan-07 20:27N 49°58' W 002°49'9 9.9
2017-Jan-07 19:30N 50°01' W 002°35'22 9.1
2017-Jan-07 17:05N 50°07' W 002°02'4 7.8
2017-Jan-07 16:33N 50°09' W 001°56'7 7.0
2017-Jan-07 15:33N 50°11' W 001°46'6 6.3
2017-Jan-07 14:33N 50°12' W 001°36'6 6.4
2017-Jan-07 13:33N 50°14' W 001°27'7 7.3
2017-Jan-07 12:33N 50°17' W 001°16'33 9.6
2017-Jan-07 09:05N 50°26' W 000°26'5 9.9
2017-Jan-07 08:33N 50°28' W 000°18'10 9.6
2017-Jan-07 07:31N 50°31' W 000°03'9 9.2
2017-Jan-07 06:33N 50°34' E 000°10'9 8.6
2017-Jan-07 05:32N 50°36' E 000°23'31 7.9
2017-Jan-07 01:33N 50°53' E 001°06'10 9.6
2017-Jan-07 00:33N 50°59' E 001°17'10 9.8
2017-Jan-06 23:33N 51°05' E 001°29'9 8.9
2017-Jan-06 22:33N 51°11' E 001°40'8 8.0
2017-Jan-06 21:33N 51°17' E 001°48'8 7.5
2017-Jan-06 20:33N 51°23' E 001°54'7 7.2
2017-Jan-06 19:33N 51°29' E 002°00'8 7.4
2017-Jan-06 18:32N 51°35' E 002°09'90 9.0
2017-Jan-06 08:33N 52°31' E 004°03'9 8.8
2017-Jan-06 07:33N 52°30' E 004°17'9 9.1
2017-Jan-06 06:33N 52°28' E 004°31'3 3.0
2017-Jan-06 05:32N 52°28' E 004°36'0 0.0
2017-Jan-06 04:32N 52°28' E 004°36'0 0.0
2017-Jan-06 03:32N 52°28' E 004°36'0 0.0
2017-Jan-06 02:29N 52°28' E 004°36'0 0.0
2017-Jan-06 01:32N 52°28' E 004°36'0 0.0
2017-Jan-06 00:32N 52°28' E 004°36'0 0.0
2017-Jan-05 23:32N 52°28' E 004°36'0 0.0
2017-Jan-05 22:32N 52°28' E 004°36'0 0.0
2017-Jan-05 21:32N 52°28' E 004°36'0 0.0
2017-Jan-05 20:32N 52°28' E 004°36'0 0.0
2017-Jan-05 19:32N 52°28' E 004°36'0 0.0
2017-Jan-05 18:32N 52°28' E 004°36'0 0.0
2017-Jan-05 17:32N 52°28' E 004°36'0 0.0
2017-Jan-05 16:32N 52°28' E 004°36'0 0.0
2017-Jan-05 15:32N 52°28' E 004°36'0 0.0
2017-Jan-05 14:32N 52°28' E 004°36'0 0.0
2017-Jan-05 13:29N 52°28' E 004°36'0 0.0
2017-Jan-05 12:32N 52°28' E 004°36'0 0.0
2017-Jan-05 11:32N 52°28' E 004°36'0 0.1
2017-Jan-05 10:31N 52°28' E 004°36'0 0.1
2017-Jan-05 09:31N 52°28' E 004°36'0 0.0
2017-Jan-05 08:31N 52°28' E 004°36'0 0.0
2017-Jan-05 07:31N 52°28' E 004°36'0 0.0
2017-Jan-05 06:31N 52°28' E 004°36'0 0.0
2017-Jan-05 05:31N 52°28' E 004°36'0 0.2
2017-Jan-05 04:31N 52°28' E 004°36'0 0.0
2017-Jan-05 03:28N 52°28' E 004°36'0 0.0
2017-Jan-05 02:31N 52°28' E 004°36'0 0.0
2017-Jan-05 01:31N 52°28' E 004°36'0 0.0
2017-Jan-05 00:31N 52°28' E 004°36'0 0.0
2017-Jan-04 23:31N 52°28' E 004°36'0 0.0
2017-Jan-04 22:31N 52°28' E 004°36'0 0.0
2017-Jan-04 21:31N 52°28' E 004°36'0 0.1
2017-Jan-04 20:25N 52°29' E 004°36'0 0.1
2017-Jan-04 19:28N 52°28' E 004°36'0 0.0
2017-Jan-04 18:31N 52°28' E 004°36'0 0.0
2017-Jan-04 17:31N 52°28' E 004°36'0 0.0
2017-Jan-04 16:31N 52°28' E 004°36'0 0.0
2017-Jan-04 15:31N 52°28' E 004°36'0 0.0
2017-Jan-04 14:31N 52°28' E 004°36'  

Dump ship's entire track history